IBE3232 LEMD-LOWW
Flight info
| Callsign | IBE3232 |
|---|---|
| Flight time | 2h 20m |
| Altitude | 40000 |
| Route | PINAR N870 PONEN/N0472F410 N870 SEROX/N0471F400 N870 BCN DCT SALON M985 LUMAS DCT UNANA DCT STP DCT RAPED DCT PIGOS DCT EKSID DCT NOSTA DCT NOPMU/N0468F410 DCT ARALD DCT ABTAN ABTAN2W |
| Aircraft | A343/H-SDE2E3FGHIJ4J5M1RWXY/LB1D1 |
Departure
| Time | 2026-05-04 13:30 |
|---|---|
| Airport | Adolfo Suárez Madrid–Barajas Airport (LEMD) |
Arrival
| Time | 2026-05-04 15:50 |
|---|---|
| Airport | Vienna International Airport (LOWW) |
| Time | Latitude | Longitude | Altitude | Speed | Heading |
|---|---|---|---|---|---|
| 2026-05-04 13:09 | 40.49303 | -3.56652 | 1978 ft | 0 kts | 271° |
| 2026-05-04 13:22 | 40.49302 | -3.56642 | 1977 ft | 4 kts | 271° |
| 2026-05-04 13:23 | 40.49301 | -3.56610 | 1975 ft | 4 kts | 276° |
| 2026-05-04 13:23 | 40.49297 | -3.56582 | 1978 ft | 3 kts | 288° |
| 2026-05-04 13:23 | 40.49291 | -3.56564 | 1979 ft | 2 kts | 307° |
| 2026-05-04 13:23 | 40.49282 | -3.56551 | 1978 ft | 3 kts | 334° |
| 2026-05-04 13:24 | 40.49265 | -3.56544 | 1973 ft | 2 kts | 354° |
| 2026-05-04 13:24 | 40.49253 | -3.56543 | 1975 ft | 2 kts | 0° |
| 2026-05-04 13:24 | 40.49243 | -3.56543 | 1974 ft | 2 kts | 360° |
| 2026-05-04 13:25 | 40.49242 | -3.56543 | 1974 ft | 0 kts | 0° |
| 2026-05-04 13:26 | 40.49256 | -3.56544 | 1973 ft | 5 kts | 358° |
| 2026-05-04 13:27 | 40.49313 | -3.56546 | 1977 ft | 11 kts | 358° |
| 2026-05-04 13:27 | 40.49408 | -3.56545 | 1973 ft | 16 kts | 0° |
| 2026-05-04 13:27 | 40.49532 | -3.56533 | 1975 ft | 14 kts | 24° |
| 2026-05-04 13:27 | 40.49552 | -3.56460 | 1975 ft | 10 kts | 90° |
| 2026-05-04 13:28 | 40.49553 | -3.56331 | 1967 ft | 18 kts | 89° |
| 2026-05-04 13:28 | 40.49557 | -3.56131 | 1963 ft | 25 kts | 90° |
| 2026-05-04 13:28 | 40.49542 | -3.55892 | 1968 ft | 28 kts | 106° |
| 2026-05-04 13:28 | 40.49476 | -3.55779 | 1967 ft | 0 kts | 141° |
| 2026-05-04 13:29 | 40.49442 | -3.55743 | 1967 ft | 31 kts | 142° |
| 2026-05-04 13:29 | 40.49063 | -3.55359 | 1958 ft | 103 kts | 142° |
| 2026-05-04 13:29 | 40.48331 | -3.54626 | 1944 ft | 159 kts | 146° |
| 2026-05-04 13:30 | 40.47437 | -3.53677 | 2487 ft | 168 kts | 147° |
| 2026-05-04 13:30 | 40.46490 | -3.52728 | 3090 ft | 179 kts | 148° |
| 2026-05-04 13:30 | 40.45427 | -3.51734 | 3714 ft | 198 kts | 145° |
| 2026-05-04 13:30 | 40.44222 | -3.50567 | 4220 ft | 229 kts | 143° |
| 2026-05-04 13:31 | 40.43050 | -3.49131 | 5245 ft | 233 kts | 121° |
| 2026-05-04 13:31 | 40.42414 | -3.47131 | 6134 ft | 245 kts | 107° |
| 2026-05-04 13:31 | 40.41760 | -3.45023 | 7007 ft | 252 kts | 114° |
| 2026-05-04 13:31 | 40.41002 | -3.42929 | 8023 ft | 255 kts | 116° |
| 2026-05-04 13:32 | 40.40221 | -3.40813 | 8975 ft | 260 kts | 114° |
| 2026-05-04 13:32 | 40.39455 | -3.38646 | 9926 ft | 264 kts | 111° |
| 2026-05-04 13:32 | 40.38771 | -3.36400 | 10819 ft | 269 kts | 106° |
| 2026-05-04 13:32 | 40.38738 | -3.33932 | 11690 ft | 277 kts | 71° |
| 2026-05-04 13:33 | 40.39761 | -3.31772 | 12361 ft | 289 kts | 36° |
| 2026-05-04 13:33 | 40.41581 | -3.30703 | 13004 ft | 291 kts | 360° |
| 2026-05-04 13:33 | 40.43560 | -3.31020 | 13793 ft | 288 kts | 336° |
| 2026-05-04 13:33 | 40.45547 | -3.31506 | 14421 ft | 302 kts | 352° |
| 2026-05-04 13:34 | 40.47662 | -3.31352 | 15253 ft | 306 kts | 359° |
| 2026-05-04 13:34 | 40.49789 | -3.31033 | 16078 ft | 309 kts | 0° |
| 2026-05-04 13:34 | 40.51935 | -3.30677 | 16854 ft | 312 kts | 0° |
| 2026-05-04 13:34 | 40.54106 | -3.30308 | 17616 ft | 316 kts | 0° |
| 2026-05-04 13:35 | 40.56301 | -3.29934 | 18325 ft | 320 kts | 360° |
| 2026-05-04 13:35 | 40.60771 | -3.29171 | 19577 ft | 327 kts | 360° |
| 2026-05-04 13:35 | 40.63045 | -3.28784 | 20170 ft | 333 kts | 360° |
| 2026-05-04 13:36 | 40.65393 | -3.28394 | 20466 ft | 348 kts | 360° |
| 2026-05-04 13:36 | 40.67848 | -3.27989 | 20754 ft | 363 kts | 360° |
| 2026-05-04 13:36 | 40.70407 | -3.27569 | 21027 ft | 378 kts | 360° |
| 2026-05-04 13:36 | 40.73066 | -3.27132 | 21299 ft | 392 kts | 0° |
| 2026-05-04 13:37 | 40.75813 | -3.26678 | 21562 ft | 405 kts | 1° |
| 2026-05-04 13:37 | 40.78609 | -3.25957 | 21749 ft | 423 kts | 10° |
| 2026-05-04 13:37 | 40.81371 | -3.24464 | 22155 ft | 436 kts | 24° |
| 2026-05-04 13:37 | 40.83101 | -3.22977 | 22532 ft | 443 kts | 33° |
| 2026-05-04 13:38 | 40.85945 | -3.19041 | 23237 ft | 454 kts | 52° |
| 2026-05-04 13:38 | 40.87430 | -3.15344 | 23778 ft | 459 kts | 66° |
| 2026-05-04 13:38 | 40.88378 | -3.11295 | 24293 ft | 461 kts | 72° |
| 2026-05-04 13:38 | 40.89184 | -3.07174 | 24711 ft | 466 kts | 73° |
| 2026-05-04 13:39 | 40.89985 | -3.02999 | 25080 ft | 471 kts | 74° |
| 2026-05-04 13:39 | 40.90798 | -2.98777 | 25434 ft | 476 kts | 74° |
| 2026-05-04 13:39 | 40.91620 | -2.94524 | 25846 ft | 480 kts | 74° |
| 2026-05-04 13:39 | 40.92452 | -2.90234 | 26243 ft | 483 kts | 74° |
| 2026-05-04 13:40 | 40.93293 | -2.85905 | 26629 ft | 487 kts | 74° |
| 2026-05-04 13:40 | 40.94137 | -2.81560 | 27012 ft | 490 kts | 74° |
| 2026-05-04 13:40 | 40.94987 | -2.77178 | 27384 ft | 493 kts | 74° |
| 2026-05-04 13:40 | 40.95842 | -2.72759 | 27763 ft | 497 kts | 74° |
| 2026-05-04 13:41 | 40.96700 | -2.68321 | 28125 ft | 500 kts | 74° |
| 2026-05-04 13:41 | 40.97565 | -2.63841 | 28418 ft | 504 kts | 75° |
| 2026-05-04 13:41 | 40.98420 | -2.59395 | 28731 ft | 508 kts | 75° |
| 2026-05-04 13:42 | 41.00253 | -2.50314 | 29385 ft | 514 kts | 74° |
| 2026-05-04 13:42 | 41.01186 | -2.45721 | 29696 ft | 517 kts | 74° |
| 2026-05-04 13:42 | 41.02105 | -2.41106 | 30003 ft | 520 kts | 75° |
| 2026-05-04 13:42 | 41.03010 | -2.36457 | 30279 ft | 522 kts | 75° |
| 2026-05-04 13:43 | 41.03910 | -2.31778 | 30548 ft | 525 kts | 75° |
| 2026-05-04 13:43 | 41.04803 | -2.27080 | 30730 ft | 527 kts | 76° |
| 2026-05-04 13:43 | 41.05699 | -2.22338 | 30886 ft | 532 kts | 76° |
| 2026-05-04 13:43 | 41.06592 | -2.17576 | 31197 ft | 532 kts | 76° |
| 2026-05-04 13:44 | 41.07485 | -2.12807 | 31575 ft | 531 kts | 76° |
| 2026-05-04 13:44 | 41.08376 | -2.08058 | 31924 ft | 531 kts | 76° |
| 2026-05-04 13:44 | 41.09260 | -2.03369 | 32246 ft | 530 kts | 76° |
| 2026-05-04 13:44 | 41.10149 | -1.98627 | 32568 ft | 530 kts | 76° |
| 2026-05-04 13:45 | 41.11031 | -1.93882 | 32887 ft | 530 kts | 76° |
| 2026-05-04 13:45 | 41.11913 | -1.89128 | 33177 ft | 530 kts | 77° |
| 2026-05-04 13:45 | 41.12792 | -1.84375 | 33440 ft | 531 kts | 77° |
| 2026-05-04 13:45 | 41.13670 | -1.79614 | 33729 ft | 531 kts | 77° |
| 2026-05-04 13:46 | 41.14544 | -1.74856 | 34013 ft | 531 kts | 77° |
| 2026-05-04 13:46 | 41.15416 | -1.70089 | 34266 ft | 530 kts | 77° |
| 2026-05-04 13:46 | 41.16280 | -1.65341 | 34544 ft | 530 kts | 76° |
| 2026-05-04 13:46 | 41.17144 | -1.60577 | 34792 ft | 529 kts | 77° |
| 2026-05-04 13:47 | 41.18003 | -1.55824 | 35055 ft | 529 kts | 77° |
| 2026-05-04 13:47 | 41.18861 | -1.51075 | 35246 ft | 529 kts | 77° |
| 2026-05-04 13:47 | 41.19704 | -1.46392 | 35480 ft | 529 kts | 77° |
| 2026-05-04 13:47 | 41.20564 | -1.41622 | 35738 ft | 528 kts | 77° |
| 2026-05-04 13:48 | 41.21417 | -1.36879 | 35982 ft | 528 kts | 77° |
| 2026-05-04 13:48 | 41.22266 | -1.32132 | 36243 ft | 527 kts | 77° |
| 2026-05-04 13:48 | 41.23110 | -1.27396 | 36498 ft | 527 kts | 77° |
| 2026-05-04 13:48 | 41.23952 | -1.22658 | 36745 ft | 526 kts | 77° |
| 2026-05-04 13:49 | 41.24782 | -1.17981 | 36960 ft | 526 kts | 76° |
| 2026-05-04 13:49 | 41.25620 | -1.13248 | 37161 ft | 526 kts | 77° |
| 2026-05-04 13:49 | 41.26456 | -1.08518 | 37392 ft | 526 kts | 77° |
| 2026-05-04 13:49 | 41.27290 | -1.03787 | 37618 ft | 525 kts | 77° |
| 2026-05-04 13:50 | 41.28123 | -0.99054 | 37871 ft | 524 kts | 77° |
| 2026-05-04 13:50 | 41.28950 | -0.94341 | 38106 ft | 524 kts | 77° |
| 2026-05-04 13:50 | 41.29775 | -0.89626 | 38329 ft | 523 kts | 77° |
| 2026-05-04 13:50 | 41.30597 | -0.84914 | 38547 ft | 523 kts | 77° |
| 2026-05-04 13:51 | 41.31418 | -0.80197 | 38719 ft | 523 kts | 77° |
| 2026-05-04 13:51 | 41.32236 | -0.75487 | 38874 ft | 522 kts | 77° |
| 2026-05-04 13:51 | 41.33882 | -0.65982 | 38893 ft | 530 kts | 77° |
| 2026-05-04 13:52 | 41.35436 | -0.56431 | 39331 ft | 524 kts | 83° |
| 2026-05-04 13:52 | 41.35696 | -0.51623 | 39541 ft | 519 kts | 89° |
| 2026-05-04 13:52 | 41.35762 | -0.46825 | 39782 ft | 516 kts | 90° |
| 2026-05-04 13:53 | 41.35763 | -0.42108 | 39888 ft | 517 kts | 91° |
| 2026-05-04 13:53 | 41.35675 | -0.32483 | 39905 ft | 522 kts | 91° |
| 2026-05-04 13:54 | 41.35517 | -0.18010 | 39902 ft | 520 kts | 91° |
| 2026-05-04 13:55 | 41.35367 | -0.03567 | 39899 ft | 520 kts | 91° |
| 2026-05-04 13:55 | 41.35210 | 0.10789 | 39894 ft | 519 kts | 92° |
| 2026-05-04 13:56 | 41.35093 | 0.20394 | 39897 ft | 519 kts | 92° |
| 2026-05-04 13:57 | 41.34905 | 0.34786 | 39898 ft | 519 kts | 92° |
| 2026-05-04 13:58 | 41.34646 | 0.52382 | 39893 ft | 519 kts | 92° |
| 2026-05-04 13:58 | 41.34386 | 0.68387 | 39904 ft | 520 kts | 92° |
| 2026-05-04 13:59 | 41.34249 | 0.76448 | 39877 ft | 520 kts | 92° |
| 2026-05-04 14:00 | 41.33992 | 0.90822 | 39906 ft | 520 kts | 92° |
| 2026-05-04 14:00 | 41.33713 | 1.05252 | 39925 ft | 520 kts | 93° |
| 2026-05-04 14:01 | 41.33516 | 1.14875 | 39911 ft | 520 kts | 93° |
| 2026-05-04 14:02 | 41.33209 | 1.29312 | 39933 ft | 520 kts | 93° |
| 2026-05-04 14:02 | 41.32991 | 1.38931 | 39932 ft | 520 kts | 93° |
| 2026-05-04 14:03 | 41.32767 | 1.48568 | 39930 ft | 520 kts | 93° |
| 2026-05-04 14:03 | 41.32536 | 1.58133 | 39928 ft | 521 kts | 94° |
| 2026-05-04 14:04 | 41.32173 | 1.72590 | 39936 ft | 521 kts | 94° |
| 2026-05-04 14:04 | 41.31920 | 1.82222 | 39940 ft | 521 kts | 94° |
| 2026-05-04 14:05 | 41.31523 | 1.96669 | 39964 ft | 522 kts | 94° |
| 2026-05-04 14:06 | 41.31253 | 2.06320 | 39974 ft | 523 kts | 92° |
| 2026-05-04 14:06 | 41.32052 | 2.15946 | 39954 ft | 526 kts | 79° |
| 2026-05-04 14:07 | 41.33655 | 2.25482 | 39960 ft | 529 kts | 76° |
| 2026-05-04 14:07 | 41.35392 | 2.35022 | 39948 ft | 531 kts | 76° |
| 2026-05-04 14:08 | 41.37104 | 2.44532 | 39933 ft | 531 kts | 76° |
| 2026-05-04 14:08 | 41.38790 | 2.54107 | 39933 ft | 532 kts | 77° |
| 2026-05-04 14:09 | 41.41351 | 2.68506 | 39905 ft | 531 kts | 72° |
| 2026-05-04 14:10 | 41.44219 | 2.82752 | 39923 ft | 529 kts | 70° |
| 2026-05-04 14:10 | 41.46055 | 2.92229 | 39925 ft | 526 kts | 71° |
| 2026-05-04 14:11 | 41.47721 | 3.01695 | 39923 ft | 523 kts | 72° |
| 2026-05-04 14:11 | 41.50079 | 3.15761 | 39926 ft | 518 kts | 73° |
| 2026-05-04 14:12 | 41.51640 | 3.25142 | 39927 ft | 516 kts | 73° |
| 2026-05-04 14:13 | 41.53973 | 3.39149 | 39920 ft | 513 kts | 70° |
| 2026-05-04 14:13 | 41.55607 | 3.48386 | 39919 ft | 509 kts | 70° |
| 2026-05-04 14:14 | 41.57187 | 3.57575 | 39928 ft | 505 kts | 71° |
| 2026-05-04 14:14 | 41.59414 | 3.71234 | 39922 ft | 499 kts | 71° |
| 2026-05-04 14:15 | 41.62287 | 3.89205 | 39935 ft | 492 kts | 71° |
| 2026-05-04 14:16 | 41.64416 | 4.02572 | 39931 ft | 488 kts | 72° |
| 2026-05-04 14:17 | 41.66516 | 4.15832 | 39937 ft | 484 kts | 72° |
| 2026-05-04 14:18 | 41.68584 | 4.28983 | 39930 ft | 479 kts | 72° |
| 2026-05-04 14:19 | 41.71297 | 4.46354 | 39942 ft | 474 kts | 72° |
| 2026-05-04 14:19 | 41.72626 | 4.54929 | 39943 ft | 472 kts | 72° |
| 2026-05-04 14:20 | 41.74274 | 4.63395 | 39973 ft | 471 kts | 59° |
| 2026-05-04 14:20 | 41.75793 | 4.67277 | 39952 ft | 470 kts | 46° |
| 2026-05-04 14:20 | 41.77829 | 4.70682 | 39903 ft | 468 kts | 36° |
| 2026-05-04 14:21 | 41.84712 | 4.79878 | 39942 ft | 464 kts | 32° |
| 2026-05-04 14:21 | 41.89343 | 4.85884 | 39954 ft | 462 kts | 33° |
| 2026-05-04 14:22 | 41.93928 | 4.91923 | 39957 ft | 462 kts | 33° |
| 2026-05-04 14:22 | 41.98489 | 4.97989 | 39950 ft | 460 kts | 33° |
| 2026-05-04 14:23 | 42.05253 | 5.07028 | 39957 ft | 457 kts | 33° |
| 2026-05-04 14:24 | 42.09752 | 5.13057 | 39969 ft | 456 kts | 33° |
| 2026-05-04 14:24 | 42.14234 | 5.19078 | 39964 ft | 454 kts | 33° |
| 2026-05-04 14:25 | 42.18703 | 5.25091 | 39953 ft | 453 kts | 33° |
| 2026-05-04 14:25 | 42.25372 | 5.34082 | 39964 ft | 451 kts | 33° |
| 2026-05-04 14:26 | 42.29799 | 5.40062 | 39980 ft | 449 kts | 33° |
| 2026-05-04 14:26 | 42.34214 | 5.46042 | 39971 ft | 448 kts | 33° |
| 2026-05-04 14:27 | 42.38580 | 5.51971 | 39988 ft | 446 kts | 33° |
| 2026-05-04 14:27 | 42.42954 | 5.57919 | 39973 ft | 445 kts | 33° |
| 2026-05-04 14:28 | 42.47314 | 5.63863 | 39993 ft | 444 kts | 33° |
| 2026-05-04 14:28 | 42.51662 | 5.69803 | 39989 ft | 443 kts | 34° |
| 2026-05-04 14:29 | 42.60289 | 5.81614 | 39991 ft | 440 kts | 33° |
| 2026-05-04 14:30 | 42.64595 | 5.87528 | 40005 ft | 439 kts | 33° |
| 2026-05-04 14:31 | 42.71114 | 5.96460 | 40001 ft | 447 kts | 33° |
| 2026-05-04 14:32 | 42.79863 | 6.08495 | 39998 ft | 448 kts | 34° |
| 2026-05-04 14:32 | 42.84224 | 6.14532 | 40014 ft | 446 kts | 33° |
| 2026-05-04 14:33 | 42.88804 | 6.20219 | 40006 ft | 444 kts | 28° |
| 2026-05-04 14:33 | 42.93515 | 6.25650 | 40031 ft | 442 kts | 27° |
| 2026-05-04 14:34 | 42.98193 | 6.31005 | 40051 ft | 441 kts | 27° |
| 2026-05-04 14:34 | 43.02892 | 6.36405 | 40035 ft | 440 kts | 27° |
| 2026-05-04 14:35 | 43.07561 | 6.41792 | 40045 ft | 439 kts | 27° |
| 2026-05-04 14:35 | 43.12213 | 6.47175 | 40024 ft | 437 kts | 27° |
| 2026-05-04 14:36 | 43.16863 | 6.52557 | 40045 ft | 437 kts | 27° |
| 2026-05-04 14:36 | 43.21461 | 6.57942 | 39990 ft | 440 kts | 33° |
| 2026-05-04 14:37 | 43.25350 | 6.64429 | 40070 ft | 440 kts | 42° |
| 2026-05-04 14:37 | 43.28992 | 6.71199 | 40042 ft | 440 kts | 43° |
| 2026-05-04 14:38 | 43.32571 | 6.78005 | 40043 ft | 438 kts | 43° |
| 2026-05-04 14:38 | 43.36107 | 6.84760 | 40025 ft | 437 kts | 43° |
| 2026-05-04 14:39 | 43.39658 | 6.91535 | 40049 ft | 437 kts | 43° |
| 2026-05-04 14:39 | 43.43220 | 6.98325 | 40051 ft | 437 kts | 43° |
| 2026-05-04 14:40 | 43.48548 | 7.08524 | 40049 ft | 437 kts | 44° |
| 2026-05-04 14:40 | 43.52094 | 7.15326 | 40044 ft | 437 kts | 44° |
| 2026-05-04 14:41 | 43.55602 | 7.22078 | 40046 ft | 435 kts | 44° |
| 2026-05-04 14:42 | 43.62623 | 7.35647 | 40049 ft | 434 kts | 44° |
| 2026-05-04 14:42 | 43.66125 | 7.42428 | 40048 ft | 433 kts | 44° |
| 2026-05-04 14:43 | 43.69607 | 7.49195 | 40050 ft | 432 kts | 44° |
| 2026-05-04 14:43 | 43.73078 | 7.55958 | 40057 ft | 431 kts | 44° |
| 2026-05-04 14:44 | 43.76537 | 7.62714 | 40054 ft | 430 kts | 44° |
| 2026-05-04 14:44 | 43.79985 | 7.69456 | 40061 ft | 429 kts | 44° |
| 2026-05-04 14:45 | 43.83768 | 7.75761 | 40098 ft | 423 kts | 28° |
| 2026-05-04 14:45 | 43.87552 | 7.80066 | 40072 ft | 421 kts | 25° |
| 2026-05-04 14:46 | 43.92948 | 7.85811 | 40106 ft | 420 kts | 24° |
| 2026-05-04 14:46 | 43.96546 | 7.90443 | 40120 ft | 424 kts | 39° |
| 2026-05-04 14:47 | 44.00242 | 7.96759 | 40124 ft | 424 kts | 41° |
| 2026-05-04 14:47 | 44.03873 | 8.03246 | 40127 ft | 424 kts | 41° |
| 2026-05-04 14:48 | 44.07458 | 8.09745 | 40130 ft | 423 kts | 41° |
| 2026-05-04 14:48 | 44.11043 | 8.16249 | 40129 ft | 423 kts | 41° |
| 2026-05-04 14:49 | 44.14629 | 8.22743 | 40131 ft | 422 kts | 41° |
| 2026-05-04 14:49 | 44.18188 | 8.29185 | 40119 ft | 422 kts | 41° |
| 2026-05-04 14:50 | 44.21764 | 8.35679 | 40101 ft | 421 kts | 41° |
| 2026-05-04 14:50 | 44.25319 | 8.42160 | 40100 ft | 420 kts | 41° |
| 2026-05-04 14:51 | 44.28871 | 8.48653 | 40090 ft | 420 kts | 41° |
| 2026-05-04 14:51 | 44.32388 | 8.55092 | 40113 ft | 420 kts | 41° |
| 2026-05-04 14:52 | 44.35929 | 8.61586 | 40118 ft | 419 kts | 41° |
| 2026-05-04 14:52 | 44.39456 | 8.68071 | 40124 ft | 418 kts | 41° |
| 2026-05-04 14:53 | 44.42969 | 8.74551 | 40124 ft | 418 kts | 41° |
| 2026-05-04 14:53 | 44.46482 | 8.81043 | 40125 ft | 417 kts | 41° |
| 2026-05-04 14:54 | 44.49959 | 8.87484 | 40125 ft | 417 kts | 41° |
| 2026-05-04 14:54 | 44.53446 | 8.93962 | 40121 ft | 416 kts | 41° |
| 2026-05-04 14:55 | 44.56929 | 9.00439 | 40115 ft | 416 kts | 41° |
| 2026-05-04 14:55 | 44.60411 | 9.06928 | 40107 ft | 416 kts | 41° |
| 2026-05-04 14:56 | 44.63887 | 9.13418 | 40101 ft | 415 kts | 41° |
| 2026-05-04 14:56 | 44.67365 | 9.19902 | 40083 ft | 416 kts | 41° |
| 2026-05-04 14:57 | 44.70838 | 9.26400 | 40081 ft | 415 kts | 42° |
| 2026-05-04 14:57 | 44.74292 | 9.32901 | 40084 ft | 415 kts | 41° |
| 2026-05-04 14:58 | 44.77743 | 9.39405 | 40087 ft | 414 kts | 41° |
| 2026-05-04 14:58 | 44.81187 | 9.45912 | 40099 ft | 415 kts | 42° |
| 2026-05-04 14:59 | 44.84612 | 9.52386 | 40096 ft | 414 kts | 42° |
| 2026-05-04 15:00 | 44.89769 | 9.62161 | 40096 ft | 414 kts | 41° |
| 2026-05-04 15:00 | 44.93196 | 9.68683 | 40100 ft | 413 kts | 42° |
| 2026-05-04 15:01 | 44.98318 | 9.78467 | 40109 ft | 413 kts | 42° |
| 2026-05-04 15:01 | 45.01710 | 9.84951 | 40069 ft | 412 kts | 42° |
| 2026-05-04 15:02 | 45.05112 | 9.91476 | 40069 ft | 412 kts | 42° |
| 2026-05-04 15:02 | 45.08509 | 9.98015 | 40069 ft | 412 kts | 42° |
| 2026-05-04 15:03 | 45.11893 | 10.04544 | 40065 ft | 411 kts | 42° |
| 2026-05-04 15:03 | 45.15273 | 10.11071 | 40067 ft | 411 kts | 42° |
| 2026-05-04 15:04 | 45.18656 | 10.17609 | 40056 ft | 411 kts | 42° |
| 2026-05-04 15:04 | 45.22029 | 10.24155 | 40055 ft | 411 kts | 42° |
| 2026-05-04 15:05 | 45.25373 | 10.30664 | 40053 ft | 410 kts | 43° |
| 2026-05-04 15:05 | 45.28728 | 10.37213 | 40050 ft | 410 kts | 43° |
| 2026-05-04 15:06 | 45.32086 | 10.43778 | 40055 ft | 410 kts | 43° |
| 2026-05-04 15:07 | 45.37108 | 10.53611 | 40048 ft | 409 kts | 43° |
| 2026-05-04 15:07 | 45.40451 | 10.60171 | 40054 ft | 409 kts | 43° |
| 2026-05-04 15:08 | 45.43783 | 10.66736 | 40051 ft | 409 kts | 43° |
| 2026-05-04 15:08 | 45.47096 | 10.73274 | 40060 ft | 411 kts | 43° |
| 2026-05-04 15:09 | 45.50446 | 10.79886 | 40050 ft | 411 kts | 43° |
| 2026-05-04 15:09 | 45.53784 | 10.86504 | 40051 ft | 411 kts | 43° |
| 2026-05-04 15:10 | 45.58808 | 10.96393 | 40052 ft | 407 kts | 41° |
| 2026-05-04 15:11 | 45.63819 | 11.06069 | 39838 ft | 405 kts | 39° |
| 2026-05-04 15:11 | 45.65537 | 11.09335 | 39346 ft | 418 kts | 39° |
| 2026-05-04 15:11 | 45.67322 | 11.12690 | 38792 ft | 430 kts | 37° |
| 2026-05-04 15:11 | 45.69161 | 11.16069 | 38268 ft | 437 kts | 37° |
| 2026-05-04 15:12 | 45.71015 | 11.19513 | 38075 ft | 435 kts | 38° |
| 2026-05-04 15:12 | 45.74565 | 11.26407 | 38068 ft | 425 kts | 40° |
| 2026-05-04 15:13 | 45.77924 | 11.33258 | 38073 ft | 414 kts | 41° |
| 2026-05-04 15:13 | 45.81151 | 11.39982 | 38079 ft | 405 kts | 41° |
| 2026-05-04 15:14 | 45.84306 | 11.46569 | 38079 ft | 396 kts | 41° |
| 2026-05-04 15:14 | 45.87418 | 11.53005 | 37324 ft | 389 kts | 40° |
| 2026-05-04 15:14 | 45.88978 | 11.56154 | 36273 ft | 395 kts | 40° |
| 2026-05-04 15:15 | 45.90610 | 11.59376 | 35254 ft | 404 kts | 40° |
| 2026-05-04 15:15 | 45.92341 | 11.62683 | 34557 ft | 421 kts | 38° |
| 2026-05-04 15:15 | 45.94164 | 11.66028 | 34170 ft | 425 kts | 38° |
| 2026-05-04 15:16 | 45.99408 | 11.76059 | 34074 ft | 410 kts | 41° |
| 2026-05-04 15:16 | 46.02590 | 11.82665 | 34073 ft | 398 kts | 38° |
| 2026-05-04 15:17 | 46.04159 | 11.85880 | 34061 ft | 388 kts | 38° |
| 2026-05-04 15:17 | 46.07165 | 11.92033 | 34063 ft | 364 kts | 37° |
| 2026-05-04 15:17 | 46.08558 | 11.95004 | 34069 ft | 353 kts | 38° |
| 2026-05-04 15:18 | 46.11153 | 12.00769 | 34056 ft | 332 kts | 39° |
| 2026-05-04 15:19 | 46.13917 | 12.07051 | 34025 ft | 311 kts | 39° |
| 2026-05-04 15:19 | 46.14185 | 12.07659 | 33985 ft | 310 kts | 37° |
| 2026-05-04 15:20 | 46.15362 | 12.10218 | 33573 ft | 313 kts | 35° |
| 2026-05-04 15:20 | 46.16642 | 12.12827 | 32932 ft | 324 kts | 33° |
| 2026-05-04 15:20 | 46.18005 | 12.15476 | 32368 ft | 333 kts | 33° |
| 2026-05-04 15:20 | 46.19389 | 12.18154 | 32096 ft | 331 kts | 34° |
| 2026-05-04 15:21 | 46.21860 | 12.23526 | 32163 ft | 317 kts | 67° |
| 2026-05-04 15:21 | 46.23587 | 12.29521 | 32466 ft | 334 kts | 68° |
| 2026-05-04 15:22 | 46.24617 | 12.32647 | 32327 ft | 355 kts | 64° |
| 2026-05-04 15:22 | 46.25863 | 12.35852 | 32109 ft | 376 kts | 60° |
| 2026-05-04 15:22 | 46.28883 | 12.42509 | 31731 ft | 416 kts | 56° |
| 2026-05-04 15:23 | 46.30579 | 12.46021 | 31555 ft | 435 kts | 55° |
| 2026-05-04 15:23 | 46.32358 | 12.49678 | 31365 ft | 454 kts | 56° |
| 2026-05-04 15:23 | 46.36760 | 12.58820 | 30907 ft | 494 kts | 56° |
| 2026-05-04 15:23 | 46.44776 | 12.75770 | 30388 ft | 506 kts | 56° |
| 2026-05-04 15:24 | 46.56484 | 13.00759 | 28984 ft | 447 kts | 54° |
| 2026-05-04 15:24 | 46.61401 | 13.10937 | 28410 ft | 472 kts | 54° |
| 2026-05-04 15:25 | 46.68683 | 13.26789 | 28053 ft | 471 kts | 60° |
| 2026-05-04 15:25 | 46.74747 | 13.43699 | 28049 ft | 470 kts | 59° |
| 2026-05-04 15:26 | 46.92981 | 13.94701 | 28020 ft | 473 kts | 59° |
| 2026-05-04 15:26 | 47.10893 | 14.46088 | 27988 ft | 472 kts | 58° |
| 2026-05-04 15:27 | 47.14641 | 14.64592 | 27995 ft | 470 kts | 71° |
| 2026-05-04 15:27 | 47.20964 | 15.01850 | 27999 ft | 470 kts | 70° |
| 2026-05-04 15:28 | 47.27434 | 15.38934 | 27988 ft | 469 kts | 68° |
| 2026-05-04 15:28 | 47.30305 | 15.56289 | 27986 ft | 467 kts | 67° |
| 2026-05-04 15:28 | 47.31821 | 15.65549 | 27991 ft | 467 kts | 68° |
| 2026-05-04 15:29 | 47.32617 | 15.70211 | 28030 ft | 471 kts | 64° |
| 2026-05-04 15:30 | 47.41774 | 15.80466 | 26087 ft | 401 kts | 8° |
| 2026-05-04 15:30 | 47.49390 | 15.84182 | 24161 ft | 375 kts | 6° |
| 2026-05-04 15:31 | 47.54486 | 15.86392 | 21722 ft | 386 kts | 3° |
| 2026-05-04 15:31 | 47.57088 | 15.87459 | 20593 ft | 389 kts | 3° |
| 2026-05-04 15:32 | 47.64786 | 15.90782 | 17867 ft | 379 kts | 5° |
| 2026-05-04 15:32 | 47.69740 | 15.93128 | 15847 ft | 371 kts | 5° |
| 2026-05-04 15:33 | 47.74561 | 15.95361 | 14107 ft | 360 kts | 5° |
| 2026-05-04 15:34 | 47.81623 | 15.98557 | 11362 ft | 346 kts | 5° |
| 2026-05-04 15:34 | 47.83907 | 15.99640 | 10685 ft | 344 kts | 6° |
| 2026-05-04 15:34 | 47.87635 | 16.01549 | 10093 ft | 324 kts | 7° |
| 2026-05-04 15:35 | 47.91756 | 16.03927 | 9457 ft | 314 kts | 9° |
| 2026-05-04 15:35 | 47.93744 | 16.05117 | 9115 ft | 311 kts | 9° |
| 2026-05-04 15:35 | 47.95747 | 16.06346 | 8796 ft | 311 kts | 9° |
| 2026-05-04 15:36 | 47.99757 | 16.08757 | 8279 ft | 308 kts | 7° |
| 2026-05-04 15:36 | 48.01759 | 16.09927 | 8034 ft | 309 kts | 7° |
| 2026-05-04 15:36 | 48.03763 | 16.11093 | 7776 ft | 308 kts | 7° |
| 2026-05-04 15:37 | 48.05756 | 16.12232 | 7526 ft | 305 kts | 6° |
| 2026-05-04 15:37 | 48.07742 | 16.13378 | 7277 ft | 307 kts | 7° |
| 2026-05-04 15:37 | 48.09728 | 16.14531 | 7038 ft | 305 kts | 7° |
| 2026-05-04 15:37 | 48.11707 | 16.15672 | 6799 ft | 302 kts | 6° |
| 2026-05-04 15:38 | 48.13668 | 16.16800 | 6562 ft | 302 kts | 7° |
| 2026-05-04 15:38 | 48.15630 | 16.17942 | 6329 ft | 302 kts | 6° |
| 2026-05-04 15:38 | 48.17580 | 16.19082 | 6070 ft | 301 kts | 26° |
| 2026-05-04 15:38 | 48.19391 | 16.20505 | 5826 ft | 295 kts | 28° |
| 2026-05-04 15:39 | 48.21177 | 16.21990 | 5575 ft | 292 kts | 30° |
| 2026-05-04 15:39 | 48.22947 | 16.23463 | 5329 ft | 289 kts | 29° |
| 2026-05-04 15:39 | 48.26453 | 16.26384 | 4984 ft | 290 kts | 29° |
| 2026-05-04 15:40 | 48.28219 | 16.27858 | 4984 ft | 290 kts | 29° |
| 2026-05-04 15:40 | 48.29979 | 16.29321 | 4980 ft | 289 kts | 29° |
| 2026-05-04 15:40 | 48.31744 | 16.30772 | 4982 ft | 289 kts | 27° |
| 2026-05-04 15:40 | 48.33480 | 16.32268 | 4963 ft | 288 kts | 35° |
| 2026-05-04 15:41 | 48.34922 | 16.34346 | 4977 ft | 285 kts | 50° |
| 2026-05-04 15:41 | 48.36044 | 16.36661 | 4981 ft | 263 kts | 55° |
| 2026-05-04 15:41 | 48.36982 | 16.38930 | 4990 ft | 250 kts | 57° |
| 2026-05-04 15:41 | 48.37748 | 16.41249 | 4985 ft | 246 kts | 64° |
| 2026-05-04 15:42 | 48.38416 | 16.43622 | 4993 ft | 246 kts | 64° |
| 2026-05-04 15:42 | 48.38889 | 16.46097 | 4989 ft | 248 kts | 81° |
| 2026-05-04 15:42 | 48.38696 | 16.48625 | 4973 ft | 239 kts | 108° |
| 2026-05-04 15:42 | 48.37827 | 16.50626 | 4975 ft | 229 kts | 133° |
| 2026-05-04 15:43 | 48.36476 | 16.51843 | 4993 ft | 227 kts | 156° |
| 2026-05-04 15:43 | 48.34925 | 16.52121 | 5003 ft | 224 kts | 173° |
| 2026-05-04 15:43 | 48.33374 | 16.52078 | 4913 ft | 222 kts | 172° |
| 2026-05-04 15:43 | 48.31876 | 16.52028 | 4639 ft | 204 kts | 173° |
| 2026-05-04 15:44 | 48.30556 | 16.51934 | 4325 ft | 179 kts | 172° |
| 2026-05-04 15:44 | 48.29354 | 16.51822 | 4111 ft | 164 kts | 172° |
| 2026-05-04 15:44 | 48.28295 | 16.51798 | 3860 ft | 141 kts | 166° |
| 2026-05-04 15:44 | 48.27400 | 16.51900 | 3682 ft | 123 kts | 160° |
| 2026-05-04 15:45 | 48.26563 | 16.52110 | 3532 ft | 123 kts | 159° |
| 2026-05-04 15:45 | 48.25723 | 16.52364 | 3387 ft | 122 kts | 158° |
| 2026-05-04 15:45 | 48.24927 | 16.52613 | 3234 ft | 113 kts | 158° |
| 2026-05-04 15:45 | 48.24173 | 16.52872 | 3091 ft | 110 kts | 154° |
| 2026-05-04 15:46 | 48.23430 | 16.53164 | 2946 ft | 111 kts | 153° |
| 2026-05-04 15:46 | 48.22684 | 16.53466 | 2799 ft | 111 kts | 149° |
| 2026-05-04 15:46 | 48.21938 | 16.53787 | 2660 ft | 113 kts | 145° |
| 2026-05-04 15:46 | 48.21171 | 16.54149 | 2498 ft | 117 kts | 142° |
| 2026-05-04 15:47 | 48.20429 | 16.54620 | 2398 ft | 114 kts | 163° |
| 2026-05-04 15:47 | 48.19654 | 16.54902 | 2196 ft | 116 kts | 171° |
| 2026-05-04 15:47 | 48.18894 | 16.55117 | 2051 ft | 108 kts | 172° |
| 2026-05-04 15:47 | 48.18157 | 16.55301 | 1919 ft | 107 kts | 173° |
| 2026-05-04 15:48 | 48.17431 | 16.55514 | 1789 ft | 105 kts | 168° |
| 2026-05-04 15:48 | 48.16748 | 16.55798 | 1638 ft | 101 kts | 164° |
| 2026-05-04 15:48 | 48.15399 | 16.56362 | 1364 ft | 101 kts | 166° |
| 2026-05-04 15:49 | 48.14714 | 16.56662 | 1223 ft | 106 kts | 157° |
| 2026-05-04 15:49 | 48.14018 | 16.57013 | 1028 ft | 106 kts | 161° |
| 2026-05-04 15:49 | 48.13297 | 16.57228 | 927 ft | 106 kts | 155° |
| 2026-05-04 15:49 | 48.12593 | 16.57553 | 773 ft | 105 kts | 158° |
| 2026-05-04 15:50 | 48.11870 | 16.57865 | 638 ft | 110 kts | 156° |
| 2026-05-04 15:50 | 48.11221 | 16.58141 | 625 ft | 76 kts | 165° |
| 2026-05-04 15:50 | 48.10860 | 16.58285 | 624 ft | 44 kts | 172° |
| 2026-05-04 15:50 | 48.10570 | 16.58227 | 619 ft | 24 kts | 213° |
| 2026-05-04 15:51 | 48.10580 | 16.58122 | 626 ft | 4 kts | 330° |
| 2026-05-04 15:51 | 48.10661 | 16.58096 | 623 ft | 21 kts | 348° |
| 2026-05-04 15:51 | 48.10842 | 16.58018 | 626 ft | 30 kts | 343° |
| 2026-05-04 15:51 | 48.11002 | 16.57871 | 628 ft | 27 kts | 313° |
| 2026-05-04 15:52 | 48.11097 | 16.57619 | 623 ft | 29 kts | 295° |
| 2026-05-04 15:52 | 48.11160 | 16.57421 | 626 ft | 0 kts | 295° |
| 2026-05-04 15:53 | 48.11168 | 16.57395 | 623 ft | 5 kts | 294° |
| 2026-05-04 15:53 | 48.11188 | 16.57335 | 628 ft | 9 kts | 296° |
| 2026-05-04 15:53 | 48.11223 | 16.57236 | 628 ft | 13 kts | 298° |
| 2026-05-04 15:54 | 48.11267 | 16.57098 | 628 ft | 17 kts | 295° |
| 2026-05-04 15:54 | 48.11326 | 16.56920 | 622 ft | 21 kts | 295° |
| 2026-05-04 15:54 | 48.11393 | 16.56709 | 628 ft | 24 kts | 296° |
| 2026-05-04 15:54 | 48.11472 | 16.56464 | 625 ft | 28 kts | 296° |
| 2026-05-04 15:55 | 48.11563 | 16.56210 | 629 ft | 22 kts | 314° |
| 2026-05-04 15:55 | 48.11598 | 16.56190 | 626 ft | 5 kts | 355° |
| 2026-05-04 15:55 | 48.11640 | 16.56184 | 623 ft | 8 kts | 339° |
| 2026-05-04 15:55 | 48.11678 | 16.56112 | 623 ft | 11 kts | 297° |
| 2026-05-04 15:56 | 48.11720 | 16.56086 | 621 ft | 6 kts | 16° |
| 2026-05-04 15:56 | 48.11742 | 16.56103 | 622 ft | 0 kts | 26° |
| 2026-05-04 15:56 | 48.11748 | 16.56109 | 629 ft | 3 kts | 28° |
| 2026-05-04 15:56 | 48.11762 | 16.56119 | 626 ft | 0 kts | 26° |